Time;durP1;ratioP1;P1;durP2;ratioP2;P2;SDS_P1;SDS_P2;PMS_P1;PMS_P2;Temp;Humidity;BMP_temperature;BMP_pressure;BME280_temperature;BME280_humidity;BME280_pressure;Samples;Min_cycle;Max_cycle;Signal;HPM_P1;HPM_P2
2023/08/07 00:02:10;;;;;;;0.70;0.70;;;;;;;-144.30;49.57;84172.06;5092713;28;20230;-54
2023/08/07 00:05:00;;;;;;;0.70;0.70;;;;;;;-144.30;49.98;84211.81;5092215;28;20234;-53
2023/08/07 00:07:56;;;;;;;4.07;1.20;;;;;;;-144.30;50.27;84203.88;5091790;28;20199;-54
2023/08/07 00:10:49;;;;;;;0.77;0.77;;;;;;;-144.30;50.13;84172.06;5092243;28;20314;-53
2023/08/07 00:13:49;;;;;;;0.90;0.90;;;;;;;-144.30;50.30;84237.66;5092420;28;20191;-54
2023/08/07 00:16:51;;;;;;;0.90;0.90;;;;;;;-144.30;50.30;84239.66;5090774;28;20203;-51
2023/08/07 00:19:38;;;;;;;1.00;1.00;;;;;;;-144.30;50.48;84172.06;5091679;28;20234;-54
2023/08/07 00:22:24;;;;;;;0.55;0.55;;;;;;;-144.30;50.14;84251.56;5092551;28;20686;-50
2023/08/07 00:25:04;;;;;;;0.88;0.88;;;;;;;-144.30;50.49;84211.81;5092881;28;20192;-50
2023/08/07 00:27:56;;;;;;;1.20;0.90;;;;;;;-144.30;50.39;84237.66;5092284;28;20206;-50
2023/08/07 00:30:27;;;;;;;1.45;0.90;;;;;;;-144.30;50.55;84227.72;5091225;28;20266;-50
2023/08/07 00:33:15;;;;;;;3.75;0.93;;;;;;;-144.30;50.64;84269.47;5090729;28;20278;-54
2023/08/07 00:36:16;;;;;;;0.70;0.70;;;;;;;-144.30;50.87;84279.38;5092858;28;20203;-51
2023/08/07 00:39:06;;;;;;;1.00;1.00;;;;;;;-144.30;50.84;84289.31;5092498;28;20604;-50
2023/08/07 00:42:00;;;;;;;1.75;0.70;;;;;;;-144.30;50.86;84289.31;5091944;28;20207;-54
2023/08/07 00:44:48;;;;;;;0.85;0.85;;;;;;;-144.30;51.08;84245.59;5090209;28;20686;-51
2023/08/07 00:47:39;;;;;;;0.77;0.77;;;;;;;-144.30;51.06;84267.47;5091027;28;20199;-51
2023/08/07 00:50:40;;;;;;;1.00;1.00;;;;;;;-144.30;51.42;84255.53;5090809;28;20231;-53
2023/08/07 00:53:42;;;;;;;1.30;1.30;;;;;;;-144.30;51.57;84299.25;5091266;28;20191;-53
2023/08/07 00:56:34;;;;;;;5.05;1.23;;;;;;;-144.30;51.46;84305.22;5091973;28;20254;-53
2023/08/07 00:59:33;;;;;;;3.80;1.00;;;;;;;-144.30;51.95;84309.19;5091718;28;20199;-54
2023/08/07 01:02:33;;;;;;;1.23;1.13;;;;;;;-144.30;51.94;84269.47;5091753;28;20193;-50
2023/08/07 01:05:26;;;;;;;1.20;1.20;;;;;;;-144.30;51.91;84303.25;5091804;28;20686;-53
2023/08/07 01:08:27;;;;;;;1.52;1.23;;;;;;;-144.30;52.03;84279.38;5088832;28;20290;-53
2023/08/07 01:11:28;;;;;;;1.52;1.42;;;;;;;-144.30;52.25;84289.31;5091378;28;20226;-53
2023/08/07 01:14:19;;;;;;;0.90;0.90;;;;;;;-144.30;52.29;84307.22;5090306;28;20208;-53
2023/08/07 01:17:11;;;;;;;0.95;0.95;;;;;;;-144.30;52.68;84313.19;5090778;28;20195;-54
2023/08/07 01:23:09;;;;;;;1.10;1.10;;;;;;;-144.30;53.08;84329.06;5088660;28;20286;-53
2023/08/07 01:25:46;;;;;;;1.08;1.08;;;;;;;-144.30;53.09;84315.16;5091160;28;20199;-53
2023/08/07 01:28:47;;;;;;;1.58;1.48;;;;;;;-144.30;53.26;84356.91;5091413;28;20194;-54
2023/08/07 01:34:37;;;;;;;1.00;1.00;;;;;;;-144.30;53.52;84390.69;5088517;28;20670;-53
2023/08/07 01:37:34;;;;;;;1.20;1.20;;;;;;;-144.30;53.45;84370.81;5090679;28;20199;-53
2023/08/07 01:40:13;;;;;;;1.20;1.20;;;;;;;-144.30;53.83;84378.75;5091243;28;20667;-53
2023/08/07 01:43:13;;;;;;;1.40;1.30;;;;;;;-144.30;53.75;84374.78;5090900;28;20209;-49
2023/08/07 01:46:07;;;;;;;1.20;1.20;;;;;;;-144.30;53.94;84178.03;5090713;28;20195;-50
2023/08/07 01:49:15;;;;;;;;;;;;;;;;;;;;;
2023/08/07 01:52:02;;;;;;;1.13;1.13;;;;;;;-144.30;54.75;84436.38;5090585;28;20225;-50
2023/08/07 01:54:49;;;;;;;1.20;1.10;;;;;;;-144.30;55.07;84418.50;5089688;28;20235;-51
2023/08/07 01:57:52;;;;;;;6.38;1.50;;;;;;;-144.30;55.34;84444.34;5089079;28;20204;-54
2023/08/07 02:00:32;;;;;;;1.35;1.35;;;;;;;-144.30;55.60;84366.84;5090213;28;20577;-49
2023/08/07 02:03:23;;;;;;;6.18;1.67;;;;;;;-144.30;55.98;84442.34;5090701;28;20201;-51
2023/08/07 02:06:15;;;;;;;2.20;1.90;;;;;;;-144.30;56.09;84464.22;5090033;28;20202;-49
2023/08/07 02:08:58;;;;;;;1.98;1.88;;;;;;;-144.30;56.49;84454.28;5090809;28;20643;-50
2023/08/07 02:11:42;;;;;;;1.75;1.65;;;;;;;-144.30;56.45;84472.16;5090511;28;20262;-50
2023/08/07 02:14:38;;;;;;;1.50;1.50;;;;;;;-144.30;56.70;84509.94;5089947;28;20305;-51
2023/08/07 02:17:30;;;;;;;2.08;1.92;;;;;;;-144.30;56.78;84521.84;5089177;28;20248;-53
2023/08/07 02:20:28;;;;;;;2.20;1.60;;;;;;;-144.30;56.67;84464.22;5089208;28;20199;-50
2023/08/07 02:23:20;;;;;;;2.53;2.42;;;;;;;-144.30;56.70;84454.28;5090283;28;20199;-54
2023/08/07 02:26:15;;;;;;;2.28;2.17;;;;;;;-144.30;56.82;84480.13;5090413;28;20195;-54
2023/08/07 02:29:17;;;;;;;2.13;2.03;;;;;;;-144.30;57.08;84490.06;5090283;28;20196;-50
2023/08/07 02:32:31;;;;;;;;;;;;;;;;;;;;;
2023/08/07 02:35:17;;;;;;;2.10;2.00;;;;;;;-144.30;57.53;84531.78;5089639;28;20205;-50
2023/08/07 02:38:11;;;;;;;4.60;2.00;;;;;;;-144.30;57.64;85018.75;5089731;28;20268;-50
2023/08/07 02:41:06;;;;;;;3.92;2.40;;;;;;;-144.30;57.60;84501.97;5089536;28;20195;-50
2023/08/07 02:43:56;;;;;;;2.00;1.90;;;;;;;-144.30;57.74;84531.78;5089795;28;20671;-49
2023/08/07 02:46:54;;;;;;;2.00;1.90;;;;;;;-144.30;57.64;84509.94;5088893;28;20612;-50
2023/08/07 02:49:38;;;;;;;2.33;2.20;;;;;;;-144.30;57.63;84529.81;5089491;28;20226;-53
2023/08/07 02:52:13;;;;;;;2.20;2.10;;;;;;;-144.30;58.14;84537.75;5089916;28;20276;-50
2023/08/07 02:55:13;;;;;;;1.83;1.73;;;;;;;-144.30;58.09;84511.91;5089988;28;20285;-49
2023/08/07 02:58:07;;;;;;;2.28;2.17;;;;;;;-144.30;58.79;84561.59;5088266;28;20199;-49
2023/08/07 03:00:59;;;;;;;2.70;2.60;;;;;;;-144.30;59.01;84519.88;5087578;28;20294;-49
2023/08/07 03:03:54;;;;;;;2.80;2.60;;;;;;;-144.30;59.50;84593.41;5089047;28;20200;-50
2023/08/07 03:06:50;;;;;;;2.60;2.50;;;;;;;-144.30;59.92;84605.31;5088403;28;20199;-54
2023/08/07 03:09:39;;;;;;;2.55;2.45;;;;;;;-144.30;59.78;84583.47;5089395;28;20238;-51
2023/08/07 03:12:10;;;;;;;2.60;2.30;;;;;;;-144.30;59.96;84585.44;5089443;28;20223;-53
2023/08/07 03:14:44;;;;;;;2.40;2.30;;;;;;;-144.30;60.13;84595.38;5089610;28;20195;-49
2023/08/07 03:17:14;;;;;;;3.15;2.95;;;;;;;-144.30;60.21;84601.34;5090075;28;20783;-54
2023/08/07 03:19:51;;;;;;;2.88;2.78;;;;;;;-144.30;60.37;84559.63;5089539;28;20732;-49
2023/08/07 03:22:25;;;;;;;3.45;3.03;;;;;;;-144.30;60.24;84595.38;5084145;28;20643;-54
2023/08/07 03:24:56;;;;;;;2.30;2.20;;;;;;;-144.30;60.52;84619.22;5089349;28;20671;-54
2023/08/07 03:27:30;;;;;;;2.63;2.42;;;;;;;-144.30;60.61;84595.38;5086614;28;20205;-50
2023/08/07 03:29:58;;;;;;;2.50;2.40;;;;;;;-144.30;60.65;84629.19;5085110;28;20257;-50
2023/08/07 03:32:25;;;;;;;2.60;2.50;;;;;;;-144.30;60.70;84597.38;5087692;28;20215;-52
2023/08/07 03:34:57;;;;;;;3.03;2.72;;;;;;;-144.30;60.57;84599.34;5088832;28;20274;-54
2023/08/07 03:37:32;;;;;;;2.40;2.20;;;;;;;-144.30;60.56;84563.59;5087626;28;20282;-50
2023/08/07 03:40:01;;;;;;;3.97;2.65;;;;;;;-144.30;60.39;84591.41;5088664;28;20196;-54
2023/08/07 03:42:32;;;;;;;3.45;2.90;;;;;;;-144.30;60.02;84595.38;5086429;28;20215;-54
2023/08/07 03:45:06;;;;;;;2.72;2.50;;;;;;;-144.30;59.58;84591.41;5086691;28;20598;-54
2023/08/07 03:47:34;;;;;;;3.00;2.80;;;;;;;-144.30;59.38;84553.66;5089153;28;21059;-54
2023/08/07 03:50:05;;;;;;;2.70;2.60;;;;;;;-144.30;59.16;84577.50;5088544;28;20222;-54
2023/08/07 03:52:48;;;;;;;2.55;2.45;;;;;;;-144.30;58.93;84561.59;5086588;28;20200;-50
2023/08/07 03:55:19;;;;;;;2.92;2.60;;;;;;;-144.30;58.70;84567.56;5088867;28;20205;-51
2023/08/07 03:57:56;;;;;;;3.05;2.53;;;;;;;-144.30;58.40;84533.78;5088358;28;20195;-50
2023/08/07 04:00:26;;;;;;;2.85;2.65;;;;;;;-144.30;58.04;84474.16;5085875;28;20195;-50
2023/08/07 04:03:01;;;;;;;3.35;2.83;;;;;;;-144.30;56.58;84422.47;5086930;28;20304;-49
2023/08/07 04:05:51;;;;;;;2.70;2.60;;;;;;;-144.30;53.28;84203.88;5088080;28;20274;-54
2023/08/07 04:08:34;;;;;;;2.78;2.58;;;;;;;-144.30;49.64;83997.22;5087456;28;20206;-54
2023/08/07 04:11:19;;;;;;;2.10;2.00;;;;;;;-144.30;46.99;83742.88;5088302;28;20187;-54
2023/08/07 04:14:05;;;;;;;3.20;2.08;;;;;;;-144.30;44.14;83532.25;5091036;28;20198;-50
2023/08/07 04:17:03;;;;;;;3.42;2.17;;;;;;;-144.30;42.88;83422.97;5090103;28;20199;-50
2023/08/07 04:19:38;;;;;;;2.90;2.70;;;;;;;-144.30;41.53;83275.94;5092746;28;20347;-50
2023/08/07 04:22:13;;;;;;;5.35;3.83;;;;;;;-144.30;39.95;83103.13;5091457;28;20321;-51
2023/08/07 04:25:01;;;;;;;2.53;1.88;;;;;;;-144.30;38.47;82964.06;5092665;28;20671;-52
2023/08/07 04:27:45;;;;;;;2.28;1.95;;;;;;;-144.30;36.96;82781.28;5083620;28;20290;-51
2023/08/07 04:30:17;;;;;;;3.30;2.85;;;;;;;-144.30;36.19;82681.97;5071172;28;20645;-54
2023/08/07 04:32:52;;;;;;;5.15;2.00;;;;;;;-144.30;35.43;82558.81;5078913;28;20207;-53
2023/08/07 04:35:25;;;;;;;2.20;1.95;;;;;;;-144.30;35.11;82493.28;5088235;28;20191;-54
2023/08/07 04:38:00;;;;;;;3.03;2.85;;;;;;;-144.30;35.13;82535.00;5091104;28;20698;-51
2023/08/07 04:40:37;;;;;;;4.13;3.35;;;;;;;-144.30;34.99;82554.84;5091696;28;20191;-51
2023/08/07 04:43:20;;;;;;;3.28;1.77;;;;;;;-144.30;34.27;82439.66;5091829;28;20223;-51
2023/08/07 04:46:02;;;;;;;3.40;1.60;;;;;;;-144.30;34.30;82427.72;5091685;28;20667;-50
2023/08/07 04:48:48;;;;;;;3.15;2.08;;;;;;;-144.30;33.50;82260.88;5091322;28;20195;-52
2023/08/07 04:51:18;;;;;;;7.50;1.70;;;;;;;-144.30;33.43;82141.72;5051877;28;20758;-54
2023/08/07 04:53:56;;;;;;;4.15;3.85;;;;;;;-144.30;32.81;82117.88;5051761;28;20211;-55
2023/08/07 04:56:44;;;;;;;4.25;2.38;;;;;;;-144.30;32.29;82046.41;5051058;28;20208;-51
2023/08/07 04:59:26;;;;;;;4.18;1.80;;;;;;;-144.30;31.30;81839.84;5051219;28;20196;-52
2023/08/07 05:02:14;;;;;;;2.17;1.70;;;;;;;-144.30;30.40;81559.84;5050512;28;20293;-52
2023/08/07 05:04:56;;;;;;;3.63;1.42;;;;;;;-144.30;29.80;81440.72;5051193;28;20231;-52
2023/08/07 05:07:43;;;;;;;2.88;2.50;;;;;;;-144.30;30.35;81657.16;5050749;28;20199;-51
2023/08/07 05:10:37;;;;;;;2.15;1.42;;;;;;;-144.30;30.51;81700.84;5050947;28;20696;-50
2023/08/07 05:13:17;;;;;;;3.22;1.65;;;;;;;-144.30;29.82;81575.75;5050362;28;20193;-54
2023/08/07 05:16:01;;;;;;;4.68;1.58;;;;;;;-144.30;29.95;81597.59;5050235;28;20199;-54
2023/08/07 05:18:46;;;;;;;2.00;1.60;;;;;;;-144.30;29.66;81615.47;5050761;28;20198;-51
2023/08/07 05:21:23;;;;;;;1.92;1.70;;;;;;;-144.30;29.89;81639.28;5050178;28;20196;-54
2023/08/07 05:24:04;;;;;;;2.30;1.63;;;;;;;-144.30;29.84;81583.69;5050551;28;20196;-54
2023/08/07 05:26:52;;;;;;;2.47;2.30;;;;;;;-144.30;29.01;81329.53;5049747;28;20302;-50
2023/08/07 05:29:43;;;;;;;9.88;3.40;;;;;;;-144.30;27.96;81045.59;5050770;28;20653;-55
2023/08/07 05:32:28;;;;;;;2.50;1.92;;;;;;;-144.30;27.89;80993.97;5050715;28;20192;-54
2023/08/07 05:35:11;;;;;;;2.22;2.03;;;;;;;-144.30;28.39;81174.66;5050449;28;20261;-53
2023/08/07 05:37:51;;;;;;;3.55;2.75;;;;;;;-144.30;28.95;81333.50;5050124;28;20192;-54
2023/08/07 05:40:41;;;;;;;15.50;1.98;;;;;;;-144.30;28.92;81391.06;5050500;28;20728;-51
2023/08/07 05:43:21;;;;;;;1.83;1.50;;;;;;;-144.30;28.90;81262.00;5049164;28;20224;-54
2023/08/07 05:46:19;;;;;;;2.00;1.52;;;;;;;-144.30;28.27;81176.63;5050484;28;20630;-52
2023/08/07 05:49:02;;;;;;;2.10;2.00;;;;;;;-144.30;27.98;81125.00;5052719;28;20216;-52
2023/08/07 05:51:40;;;;;;;2.65;2.45;;;;;;;-144.30;28.07;81031.69;5089896;28;20190;-54
2023/08/07 05:54:07;;;;;;;7.20;3.20;;;;;;;-144.30;28.02;81041.63;5089418;28;20201;-53
2023/08/07 05:56:38;;;;;;;2.65;2.00;;;;;;;-144.30;27.70;80946.31;5089893;28;20242;-51
2023/08/07 05:59:05;;;;;;;5.55;2.10;;;;;;;-144.30;28.31;81299.72;5086559;28;20285;-51
2023/08/07 06:01:37;;;;;;;2.65;2.08;;;;;;;-144.30;28.95;81494.31;5087932;28;20223;-54
2023/08/07 06:04:10;;;;;;;2.55;1.80;;;;;;;-144.30;28.85;81450.66;5090129;28;20213;-54
2023/08/07 06:06:45;;;;;;;2.72;1.90;;;;;;;-144.30;28.45;81279.88;5089620;28;20670;-54
2023/08/07 06:09:15;;;;;;;2.80;2.58;;;;;;;-144.30;28.69;81273.91;5089548;28;20202;-55
2023/08/07 06:11:45;;;;;;;2.10;2.00;;;;;;;-144.30;28.32;81238.19;5089768;28;20233;-55
2023/08/07 06:14:13;;;;;;;2.10;2.00;;;;;;;-144.30;28.43;81317.59;5089999;28;20208;-52
2023/08/07 06:16:51;;;;;;;2.30;1.60;;;;;;;-144.30;28.53;81299.72;5089635;28;20194;-55
2023/08/07 06:19:23;;;;;;;3.35;3.13;;;;;;;-144.30;28.68;81420.84;5081621;28;20198;-51
2023/08/07 06:21:55;;;;;;;3.50;2.90;;;;;;;-144.30;29.00;81323.56;5089114;28;20211;-54
2023/08/07 06:24:25;;;;;;;2.00;1.90;;;;;;;-144.30;29.10;81637.31;5086686;28;20647;-51
2023/08/07 06:26:54;;;;;;;2.00;1.90;;;;;;;-144.30;30.11;81821.97;5089419;28;20202;-54
2023/08/07 06:29:25;;;;;;;2.10;1.95;;;;;;;-144.30;29.53;81635.31;5086578;28;20714;-54
2023/08/07 06:31:57;;;;;;;3.20;1.90;;;;;;;-144.30;28.66;81307.69;5089153;28;20217;-54
2023/08/07 06:34:28;;;;;;;2.88;2.00;;;;;;;-144.30;28.30;81117.06;5086812;28;20194;-50
2023/08/07 06:36:58;;;;;;;2.17;2.00;;;;;;;-144.30;28.15;81105.16;5089235;28;20221;-51
2023/08/07 06:39:26;;;;;;;5.43;1.80;;;;;;;-144.30;27.61;80993.97;5086232;28;20202;-54
2023/08/07 06:42:00;;;;;;;14.65;3.47;;;;;;;-144.30;27.40;80942.34;5089135;28;20218;-51
2023/08/07 06:44:29;;;;;;;3.88;2.50;;;;;;;-144.30;27.74;81132.94;5084977;28;20202;-54
2023/08/07 06:47:00;;;;;;;1.92;1.85;;;;;;;-144.30;28.14;81265.97;5085911;28;20220;-54
2023/08/07 06:49:31;;;;;;;4.03;2.03;;;;;;;-144.30;28.17;81269.94;5086310;28;20233;-50
2023/08/07 06:52:02;;;;;;;4.13;2.22;;;;;;;-144.30;28.21;81244.13;5088264;28;20222;-50
2023/08/07 06:54:29;;;;;;;8.82;2.00;;;;;;;-144.30;29.28;81256.06;5085896;28;20198;-50
2023/08/07 06:56:58;;;;;;;2.05;1.95;;;;;;;-144.30;27.94;81301.72;5083471;28;21067;-54
2023/08/07 06:59:26;;;;;;;2.20;2.00;;;;;;;-144.30;28.41;81303.72;5088557;28;20218;-53
2023/08/07 07:01:53;;;;;;;6.00;3.33;;;;;;;-144.30;28.25;81404.97;5088648;28;20222;-54
2023/08/07 07:04:22;;;;;;;2.67;2.50;;;;;;;-144.30;29.51;81452.63;5088201;28;20202;-54
2023/08/07 07:06:49;;;;;;;3.75;3.35;;;;;;;-144.30;29.93;81692.91;5088613;28;20268;-54
2023/08/07 07:09:18;;;;;;;3.67;2.88;;;;;;;-144.30;30.35;81877.59;5088974;28;20249;-54
2023/08/07 07:11:46;;;;;;;9.90;9.05;;;;;;;-144.30;30.28;81823.97;5085285;28;20229;-54
2023/08/07 07:14:14;;;;;;;2.53;2.40;;;;;;;-144.30;29.94;81728.66;5088712;28;20195;-54
2023/08/07 07:16:46;;;;;;;6.65;2.78;;;;;;;-144.30;29.63;81740.56;5088180;28;20199;-54
2023/08/07 07:19:17;;;;;;;1.75;1.65;;;;;;;-144.30;29.26;81657.16;5085869;28;20679;-53
2023/08/07 07:21:46;;;;;;;3.38;2.00;;;;;;;-144.30;29.33;81655.19;5085525;28;20291;-54
2023/08/07 07:24:16;;;;;;;6.25;2.13;;;;;;;-144.30;28.83;81506.25;5087536;28;20281;-54
2023/08/07 07:26:45;;;;;;;6.72;5.18;;;;;;;-144.30;28.59;81367.25;5087533;28;20238;-54
2023/08/07 07:29:14;;;;;;;7.03;2.13;;;;;;;-144.30;28.92;81490.34;5088329;28;20191;-53
2023/08/07 07:31:48;;;;;;;3.92;2.25;;;;;;;-144.30;29.04;81611.47;5088021;28;20256;-50
2023/08/07 07:34:16;;;;;;;4.30;2.35;;;;;;;-144.30;28.34;81412.91;5086944;28;20269;-54
2023/08/07 07:36:49;;;;;;;3.92;2.28;;;;;;;-144.30;27.64;81222.28;5085968;28;20285;-54
2023/08/07 07:39:19;;;;;;;1.70;1.60;;;;;;;-144.30;27.59;81013.81;5088188;28;20197;-51
2023/08/07 07:41:52;;;;;;;12.10;2.95;;;;;;;-144.30;27.01;80940.38;5085382;28;21011;-51
2023/08/07 07:44:26;;;;;;;2.60;2.40;;;;;;;-144.30;26.84;80829.19;5088131;28;20190;-50
2023/08/07 07:46:55;;;;;;;2.28;2.17;;;;;;;-144.30;26.31;80545.28;5088370;28;20194;-54
2023/08/07 07:49:27;;;;;;;2.97;2.72;;;;;;;-144.30;25.27;80378.56;5091648;28;20251;-54
2023/08/07 07:51:57;;;;;;;2.83;2.20;;;;;;;-144.30;25.17;80491.69;5092480;28;20201;-54
2023/08/07 07:54:26;;;;;;;2.25;2.08;;;;;;;-144.30;25.15;80390.47;5089748;28;20199;-54
2023/08/07 07:56:58;;;;;;;6.43;4.55;;;;;;;-144.30;25.04;80432.16;5091975;28;20678;-50
2023/08/07 07:59:29;;;;;;;6.10;4.57;;;;;;;-144.30;24.71;80287.25;5091860;28;20277;-54
2023/08/07 08:02:01;;;;;;;3.53;3.22;;;;;;;-144.30;24.54;80259.44;5091280;28;20194;-54
2023/08/07 08:04:30;;;;;;;11.38;2.05;;;;;;;-144.30;24.28;80571.09;5089102;28;20248;-54
2023/08/07 08:07:02;;;;;;;3.78;3.53;;;;;;;-144.30;24.38;80398.41;5090383;28;20593;-51
2023/08/07 08:09:35;;;;;;;4.22;3.08;;;;;;;-144.30;24.33;80505.59;5090358;28;20726;-53
2023/08/07 08:12:04;;;;;;;1.65;1.55;;;;;;;-144.30;24.30;80430.16;5089625;28;20198;-50
2023/08/07 08:14:34;;;;;;;3.17;1.75;;;;;;;-144.30;24.31;80320.97;5091479;28;20248;-51
2023/08/07 08:17:03;;;;;;;2.53;1.60;;;;;;;-144.30;24.22;80481.78;5087905;28;20202;-50
2023/08/07 08:19:34;;;;;;;3.72;1.63;;;;;;;-144.30;24.35;80513.53;5091512;28;20194;-54
2023/08/07 08:22:06;;;;;;;3.55;1.85;;;;;;;-144.30;24.18;80555.22;5088949;28;20199;-54
2023/08/07 08:24:37;;;;;;;2.50;1.58;;;;;;;-144.30;24.37;80676.31;5091210;28;20656;-54
2023/08/07 08:27:13;;;;;;;4.75;1.60;;;;;;;-144.30;24.83;80815.28;5097178;28;20234;-54
2023/08/07 08:29:41;;;;;;;7.47;2.30;;;;;;;-144.30;25.22;80823.22;5088433;28;20208;-50
2023/08/07 08:32:14;;;;;;;4.78;2.05;;;;;;;-144.30;24.87;80763.66;5091897;28;20709;-51
2023/08/07 08:34:51;;;;;;;6.38;2.17;;;;;;;-144.30;25.17;80874.84;5091492;28;20286;-54
2023/08/07 08:37:28;;;;;;;3.63;1.83;;;;;;;-144.30;25.04;80853.00;5092254;28;20205;-55
2023/08/07 08:40:00;;;;;;;1.77;1.55;;;;;;;-144.30;25.42;80990.00;5091308;28;20593;-54
2023/08/07 08:42:29;;;;;;;2.05;1.77;;;;;;;-144.30;25.60;81222.28;5091677;28;20317;-54
2023/08/07 08:45:04;;;;;;;2.33;1.65;;;;;;;-144.30;25.82;81264.00;5091800;28;20252;-54
2023/08/07 08:47:57;;;;;;;4.00;1.40;;;;;;;-144.30;26.03;81262.00;5091545;28;20195;-54
2023/08/07 08:50:49;;;;;;;1.55;1.45;;;;;;;-144.30;26.10;81319.59;5089091;28;20295;-50
2023/08/07 08:53:27;;;;;;;22.80;2.33;;;;;;;-144.30;25.88;81331.50;5091114;28;20195;-54
2023/08/07 08:55:59;;;;;;;3.85;1.38;;;;;;;-144.30;26.50;81438.72;5091517;28;20252;-54
2023/08/07 08:58:34;;;;;;;3.65;1.63;;;;;;;-144.30;26.39;81508.22;5091354;28;20191;-54
2023/08/07 09:01:04;;;;;;;3.05;2.03;;;;;;;-144.30;27.45;81567.78;5083828;28;20203;-51
2023/08/07 09:03:37;;;;;;;3.70;1.52;;;;;;;-144.30;26.79;81446.66;5070988;28;20310;-51
2023/08/07 09:06:11;;;;;;;2.78;1.70;;;;;;;-144.30;26.58;81516.16;5071015;28;20571;-54
2023/08/07 09:08:46;;;;;;;1.63;1.55;;;;;;;-144.30;27.10;81599.56;5070771;28;20523;-50
2023/08/07 09:11:18;;;;;;;1.52;1.40;;;;;;;-144.30;26.79;81561.84;5070871;28;20281;-50
2023/08/07 09:14:09;;;;;;;2.67;1.42;;;;;;;-144.30;26.41;81460.56;5070739;28;20207;-51
2023/08/07 09:16:42;;;;;;;1.50;1.40;;;;;;;-144.30;26.04;81436.75;5070181;28;20204;-51
2023/08/07 09:19:15;;;;;;;4.25;1.70;;;;;;;-144.30;25.74;81383.13;5070770;28;20206;-54
2023/08/07 09:22:01;;;;;;;1.75;1.40;;;;;;;-144.30;25.61;81432.78;5070684;28;20269;-50
2023/08/07 09:24:49;;;;;;;1.38;1.27;;;;;;;-144.30;26.21;81551.91;5084971;28;20309;-54
2023/08/07 09:27:21;;;;;;;1.30;1.30;;;;;;;-144.30;25.58;81454.63;5088900;28;20667;-53
2023/08/07 09:29:54;;;;;;;1.02;1.02;;;;;;;-144.30;25.55;81470.50;5090551;28;20199;-55
2023/08/07 09:32:25;;;;;;;1.10;1.10;;;;;;;-144.30;25.79;81490.34;5090800;28;20199;-55
2023/08/07 09:35:01;;;;;;;1.95;1.30;;;;;;;-144.30;25.80;81432.78;5090527;28;20203;-50
2023/08/07 09:37:36;;;;;;;1.70;1.65;;;;;;;-144.30;26.00;81492.34;5090665;28;20202;-55
2023/08/07 09:40:11;;;;;;;1.67;1.23;;;;;;;-144.30;26.02;81518.16;5090341;28;20285;-54
2023/08/07 09:42:42;;;;;;;2.28;1.20;;;;;;;-144.30;26.02;81474.47;5090319;28;20233;-55
2023/08/07 09:45:21;;;;;;;2.67;1.30;;;;;;;-144.30;25.68;81383.13;5085396;28;20735;-54
2023/08/07 09:47:59;;;;;;;1.90;1.80;;;;;;;-144.30;25.93;81522.13;5082807;28;20198;-54
2023/08/07 09:50:37;;;;;;;5.20;1.42;;;;;;;-144.30;26.19;81635.31;5082731;28;20237;-54
2023/08/07 09:53:11;;;;;;;3.45;1.30;;;;;;;-144.30;26.58;81641.28;5089467;28;20588;-54
2023/08/07 09:55:46;;;;;;;1.60;1.50;;;;;;;-144.30;25.75;81609.50;5089433;28;20260;-54
2023/08/07 09:58:41;;;;;;;1.17;1.17;;;;;;;-144.30;25.35;81488.38;5090301;28;20198;-54
2023/08/07 10:01:24;;;;;;;2.05;1.25;;;;;;;-144.30;25.18;81514.19;5088057;28;20203;-50
2023/08/07 10:04:02;;;;;;;1.90;1.60;;;;;;;-144.30;25.39;81480.44;5088956;28;20786;-54
2023/08/07 10:06:34;;;;;;;3.92;1.50;;;;;;;-144.30;25.62;81595.59;5088766;28;20226;-54
2023/08/07 10:09:10;;;;;;;1.45;1.30;;;;;;;-144.30;25.79;81657.16;5081299;28;20195;-54
2023/08/07 10:11:44;;;;;;;2.95;1.83;;;;;;;-144.30;25.74;81643.25;5069733;28;20231;-54
2023/08/07 10:14:15;;;;;;;2.22;1.60;;;;;;;-144.30;25.57;81690.91;5069785;28;20642;-53
2023/08/07 10:16:44;;;;;;;1.30;1.00;;;;;;;-144.30;25.45;81704.81;5069499;28;20257;-54
2023/08/07 10:19:14;;;;;;;1.67;1.58;;;;;;;-144.30;25.37;81686.94;5069375;28;20208;-53
2023/08/07 10:21:48;;;;;;;1.73;1.63;;;;;;;-144.30;25.59;81823.97;5069641;28;20702;-51
2023/08/07 10:24:21;;;;;;;1.35;1.33;;;;;;;-144.30;25.83;81800.13;5069446;28;20255;-53
2023/08/07 10:26:58;;;;;;;1.42;1.42;;;;;;;-144.30;26.15;81847.78;5069294;28;20200;-54
2023/08/07 10:29:31;;;;;;;1.55;1.45;;;;;;;-144.30;26.29;81843.81;5069363;28;20282;-54
2023/08/07 10:32:05;;;;;;;3.15;1.20;;;;;;;-144.30;26.64;82030.50;5069209;28;20571;-55
2023/08/07 10:34:42;;;;;;;1.83;1.50;;;;;;;-144.30;26.98;82070.22;5069155;28;20191;-55
2023/08/07 10:37:45;;;;;;;3.30;1.75;;;;;;;-144.30;27.11;82151.66;5069130;28;20231;-50
2023/08/07 10:40:17;;;;;;;3.25;1.42;;;;;;;-144.30;27.18;82183.44;5069160;28;20295;-54
2023/08/07 10:43:19;;;;;;;1.13;1.10;;;;;;;-144.30;27.03;82235.06;5068732;28;20200;-54
2023/08/07 10:45:48;;;;;;;1.00;1.00;;;;;;;-144.30;27.04;82328.41;5069224;28;20191;-51
2023/08/07 10:48:24;;;;;;;1.92;1.83;;;;;;;-144.30;27.81;82340.34;5069154;28;20200;-51
2023/08/07 10:51:05;;;;;;;2.00;1.90;;;;;;;-144.30;28.37;82346.28;5073898;28;20236;-56
2023/08/07 10:53:44;;;;;;;3.42;1.80;;;;;;;-144.30;28.05;82334.38;5089405;28;20191;-52
2023/08/07 10:56:17;;;;;;;1.52;1.50;;;;;;;-144.30;28.05;82431.69;5089251;28;20203;-51
2023/08/07 10:58:57;;;;;;;1.80;1.70;;;;;;;-144.30;28.25;82431.69;5089086;28;20202;-51
2023/08/07 11:01:43;;;;;;;2.67;2.47;;;;;;;-144.30;28.32;82449.56;5089182;28;20249;-50
2023/08/07 11:04:13;;;;;;;4.05;2.33;;;;;;;-144.30;28.15;82435.66;5088126;28;20233;-54
2023/08/07 11:06:43;;;;;;;3.83;2.53;;;;;;;-144.30;28.29;82403.91;5088257;28;20735;-55
2023/08/07 11:09:14;;;;;;;4.00;2.22;;;;;;;-144.30;28.34;82445.59;5085575;28;20195;-55
2023/08/07 11:11:47;;;;;;;2.03;1.80;;;;;;;-144.30;28.69;82439.66;5088179;28;20696;-55
2023/08/07 11:14:22;;;;;;;1.60;1.50;;;;;;;-144.30;28.56;82485.34;5086124;28;20191;-56
2023/08/07 11:16:52;;;;;;;1.60;1.60;;;;;;;-144.30;28.54;82503.22;5085372;28;20685;-55
2023/08/07 11:19:27;;;;;;;2.58;1.60;;;;;;;-144.30;28.85;82523.06;5088240;28;20191;-55
2023/08/07 11:21:59;;;;;;;2.25;1.58;;;;;;;-144.30;28.70;82435.66;5085828;28;20216;-51
2023/08/07 11:24:31;;;;;;;3.13;2.88;;;;;;;-144.30;28.58;82481.34;5087864;28;20639;-52
2023/08/07 11:27:01;;;;;;;3.70;3.42;;;;;;;-144.30;28.54;82483.34;5088113;28;20191;-51
2023/08/07 11:29:37;;;;;;;3.45;3.22;;;;;;;-144.30;28.51;82447.59;5088034;28;20203;-51
2023/08/07 11:32:07;;;;;;;1.63;1.52;;;;;;;-144.30;28.46;82469.44;5088303;28;20198;-55
2023/08/07 11:34:39;;;;;;;4.30;1.73;;;;;;;-144.30;28.60;82515.13;5085791;28;20200;-54
2023/08/07 11:37:08;;;;;;;1.55;1.45;;;;;;;-144.30;28.60;82578.69;5088041;28;20286;-54
2023/08/07 11:39:46;;;;;;;1.95;1.85;;;;;;;-144.30;28.88;82497.25;5088840;28;20256;-51
2023/08/07 11:42:16;;;;;;;2.40;2.30;;;;;;;-144.30;28.88;82517.09;5088832;28;20198;-51
2023/08/07 11:44:53;;;;;;;3.88;2.72;;;;;;;-144.30;29.14;82529.03;5088643;28;20716;-54
2023/08/07 11:47:24;;;;;;;2.10;1.83;;;;;;;-144.30;29.24;82564.78;5088516;28;20194;-54
2023/08/07 11:49:59;;;;;;;8.40;7.57;;;;;;;-144.30;29.09;82582.66;5088306;28;20730;-55
2023/08/07 11:52:32;;;;;;;4.75;3.22;;;;;;;-144.30;29.07;82578.69;5088538;28;20194;-51
2023/08/07 11:55:06;;;;;;;3.70;2.70;;;;;;;-144.30;29.08;82536.97;5087933;28;20187;-54
2023/08/07 11:57:42;;;;;;;6.43;2.50;;;;;;;-144.30;28.81;82487.31;5088439;28;20714;-54
2023/08/07 12:00:17;;;;;;;1.90;1.80;;;;;;;-144.30;29.26;82463.47;5087631;28;20190;-54
2023/08/07 12:02:51;;;;;;;2.00;1.90;;;;;;;-144.30;29.14;82475.41;5088033;28;20276;-54
2023/08/07 12:05:23;;;;;;;1.70;1.60;;;;;;;-144.30;28.92;82465.47;5088348;28;20218;-53
2023/08/07 12:07:51;;;;;;;1.80;1.70;;;;;;;-144.30;29.28;82535.00;5088182;28;20726;-54
2023/08/07 12:10:27;;;;;;;1.73;1.65;;;;;;;-144.30;29.34;82538.97;5088020;28;20199;-54
2023/08/07 12:13:04;;;;;;;1.33;1.33;;;;;;;-144.30;29.36;82533.00;5085386;28;20278;-50
2023/08/07 12:15:43;;;;;;;2.15;2.05;;;;;;;-144.30;29.89;82523.06;5084854;28;20305;-49
2023/08/07 12:18:12;;;;;;;2.00;1.90;;;;;;;-144.30;29.29;82580.66;5087714;28;20229;-51
2023/08/07 12:20:45;;;;;;;2.15;1.95;;;;;;;-144.30;29.79;82578.69;5088250;28;20195;-50